Time;durP1;ratioP1;P1;durP2;ratioP2;P2;SDS_P1;SDS_P2;PMS_P1;PMS_P2;Temp;Humidity;BMP_temperature;BMP_pressure;BME280_temperature;BME280_humidity;BME280_pressure;Samples;Min_cycle;Max_cycle;Signal;HPM_P1;HPM_P2
2022/04/19 00:00:04;;;;;;;1.63;1.35;;;;;;;16.77;37.49;92912.88;5013408;28;20453;-88
2022/04/19 00:02:30;;;;;;;1.85;1.52;;;;;;;16.76;37.99;92908.66;5013969;28;20062;-88
2022/04/19 00:04:58;;;;;;;1.90;1.67;;;;;;;16.75;37.92;92901.72;5013705;28;20038;-89
2022/04/19 00:07:24;;;;;;;1.98;1.55;;;;;;;16.74;38.12;92892.06;4997607;28;20124;-88
2022/04/19 00:09:49;;;;;;;2.28;1.30;;;;;;;16.75;37.84;92897.00;5013692;28;20152;-88
2022/04/19 00:12:14;;;;;;;1.60;1.30;;;;;;;16.75;38.10;92893.53;5013312;28;20072;-88
2022/04/19 00:14:40;;;;;;;1.60;1.50;;;;;;;16.75;37.61;92883.38;5012875;28;20034;-88
2022/04/19 00:17:06;;;;;;;1.70;1.45;;;;;;;16.74;37.62;92875.69;5032095;28;20384;-88
2022/04/19 00:19:31;;;;;;;1.48;1.38;;;;;;;16.74;37.75;92876.44;5032924;28;20143;-88
2022/04/19 00:21:56;;;;;;;2.00;1.65;;;;;;;16.73;38.08;92874.94;5013587;28;20037;-88
2022/04/19 00:24:22;;;;;;;1.35;1.25;;;;;;;16.74;37.98;92881.88;5013346;28;20479;-88
2022/04/19 00:26:47;;;;;;;1.38;1.27;;;;;;;16.73;37.85;92879.66;4997468;28;20037;-88
2022/04/19 00:29:12;;;;;;;1.98;1.45;;;;;;;16.73;37.84;92872.22;5015068;28;20037;-88
2022/04/19 00:31:38;;;;;;;1.20;1.10;;;;;;;16.73;37.97;92866.03;5016924;28;20426;-88
2022/04/19 00:34:03;;;;;;;1.75;1.40;;;;;;;16.73;38.03;92861.31;5012547;28;20038;-88
2022/04/19 00:36:29;;;;;;;1.40;1.30;;;;;;;16.73;38.25;92868.75;4997185;28;20037;-88
2022/04/19 00:38:54;;;;;;;1.77;1.40;;;;;;;16.74;37.87;92865.50;5013204;28;20487;-88
2022/04/19 00:41:20;;;;;;;1.88;1.50;;;;;;;16.72;37.99;92859.09;5012223;28;20034;-88
2022/04/19 00:43:45;;;;;;;1.98;1.60;;;;;;;16.73;38.16;92855.84;5013342;28;20033;-86
2022/04/19 00:46:11;;;;;;;1.25;1.15;;;;;;;16.72;37.89;92846.19;4990842;28;20084;-85
2022/04/19 00:48:36;;;;;;;2.25;1.48;;;;;;;16.72;38.12;92839.97;4959047;28;20065;-85
2022/04/19 00:51:02;;;;;;;1.90;1.42;;;;;;;16.72;38.04;92843.44;4975854;28;20037;-86
2022/04/19 00:53:27;;;;;;;1.83;1.48;;;;;;;16.70;37.92;92840.50;4974850;28;20053;-85
2022/04/19 00:55:53;;;;;;;2.22;1.50;;;;;;;16.71;38.02;92847.44;4975159;28;20040;-86
2022/04/19 00:58:18;;;;;;;2.00;1.80;;;;;;;16.71;38.00;92843.97;4932873;29;20568;-85
2022/04/19 01:00:44;;;;;;;1.20;1.10;;;;;;;16.70;37.96;92837.03;4917755;29;20051;-86
2022/04/19 01:03:09;;;;;;;1.75;1.27;;;;;;;16.71;38.02;92825.59;4915742;29;20417;-85
2022/04/19 01:05:35;;;;;;;2.63;1.55;;;;;;;16.71;37.98;92836.50;4918045;29;20047;-86
2022/04/19 01:08:00;;;;;;;1.60;1.50;;;;;;;16.71;38.00;92830.31;4933116;29;20031;-85
2022/04/19 01:10:26;;;;;;;1.55;1.45;;;;;;;16.70;37.87;92824.13;4933403;28;20082;-85
2022/04/19 01:15:36;;;;;;;2.42;1.85;;;;;;;16.70;37.96;92810.47;4935352;28;20058;-86
2022/04/19 01:18:02;;;;;;;2.85;1.58;;;;;;;16.69;37.71;92811.72;4984240;28;20488;-86
2022/04/19 01:20:28;;;;;;;1.55;1.33;;;;;;;16.70;37.88;92815.19;4975151;28;20064;-86
2022/04/19 01:22:54;;;;;;;1.70;1.40;;;;;;;16.69;38.00;92813.72;4959277;28;20509;-86
2022/04/19 01:25:19;;;;;;;1.48;1.23;;;;;;;16.68;38.06;92812.22;4958093;28;20459;-85
2022/04/19 01:27:45;;;;;;;1.58;1.45;;;;;;;16.68;37.96;92810.25;4990892;28;20049;-86
2022/04/19 01:30:11;;;;;;;2.15;1.48;;;;;;;16.69;37.97;92809.00;5005515;28;20072;-85
2022/04/19 01:32:36;;;;;;;1.40;1.30;;;;;;;16.69;38.17;92805.53;5017980;28;20025;-85
2022/04/19 01:35:05;;;;;;;1.83;1.50;;;;;;;16.70;38.22;92810.47;5015280;28;20052;-85
2022/04/19 01:37:35;;;;;;;1.50;1.30;;;;;;;16.68;38.04;92810.25;5048216;28;20040;-85
2022/04/19 01:40:18;;;;;;;1.50;1.40;;;;;;;16.68;37.88;92810.25;5028640;28;20034;-86
2022/04/19 01:42:47;;;;;;;1.80;1.30;;;;;;;16.69;37.91;92802.78;5028415;28;20029;-86
2022/04/19 01:45:13;;;;;;;1.50;1.30;;;;;;;16.68;38.27;92795.84;5027538;28;20085;-86
2022/04/19 01:47:39;;;;;;;2.03;1.75;;;;;;;16.67;38.00;92797.84;5027877;28;20057;-86
2022/04/19 01:50:10;;;;;;;1.63;1.30;;;;;;;16.68;38.00;92796.59;5028162;28;20068;-85
2022/04/19 01:52:36;;;;;;;;;;;;;;;16.73;37.84;92797.78;5012765;28;20239;-85
2022/04/19 01:55:03;;;;;;;1.85;1.65;;;;;;;16.69;37.97;92794.59;5040476;28;20260;-85
2022/04/19 01:57:29;;;;;;;2.22;1.63;;;;;;;16.66;37.93;92792.94;5014115;28;20067;-85
2022/04/19 01:59:54;;;;;;;1.35;1.25;;;;;;;16.66;38.03;92787.47;5015102;28;20628;-85
2022/04/19 02:02:20;;;;;;;1.52;1.35;;;;;;;16.66;37.88;92782.00;5030767;28;20562;-85
2022/04/19 02:04:45;;;;;;;1.55;1.42;;;;;;;16.66;38.12;92787.47;5031433;28;20051;-85
2022/04/19 02:07:11;;;;;;;1.75;1.52;;;;;;;16.67;38.02;92786.22;5013089;28;20044;-86
2022/04/19 02:09:36;;;;;;;2.00;1.63;;;;;;;16.65;38.03;92778.53;5031167;28;20037;-85
2022/04/19 02:12:03;;;;;;;1.77;1.40;;;;;;;16.66;37.87;92777.28;5047357;28;20040;-85
2022/04/19 02:14:29;;;;;;;1.73;1.60;;;;;;;16.66;37.82;92773.84;5014313;28;20067;-86
2022/04/19 02:16:55;;;;;;;1.52;1.30;;;;;;;16.65;38.31;92769.63;5014336;28;20037;-85
2022/04/19 02:19:20;;;;;;;2.28;1.77;;;;;;;16.66;37.71;92773.84;5014778;28;20041;-86
2022/04/19 02:21:46;;;;;;;1.70;1.30;;;;;;;16.67;37.64;92767.13;5036016;28;20514;-86
2022/04/19 02:24:12;;;;;;;1.45;1.35;;;;;;;16.66;37.95;92774.56;5010736;28;20483;-85
2022/04/19 02:26:37;;;;;;;1.63;1.50;;;;;;;16.67;38.21;92765.09;5010907;28;20048;-85
2022/04/19 02:29:02;;;;;;;1.50;1.35;;;;;;;16.65;38.12;92764.91;4994399;28;20041;-85
2022/04/19 02:31:28;;;;;;;1.88;1.60;;;;;;;16.66;38.33;92760.94;5025609;28;20084;-86
2022/04/19 02:33:56;;;;;;;1.63;1.20;;;;;;;16.65;37.93;92759.44;5027740;28;20033;-86
2022/04/19 02:36:21;;;;;;;2.13;1.50;;;;;;;16.65;37.86;92750.53;4994564;28;20046;-85
2022/04/19 02:38:46;;;;;;;1.65;1.42;;;;;;;16.65;38.04;92754.00;5010877;28;20026;-86
2022/04/19 02:41:12;;;;;;;2.08;1.67;;;;;;;16.65;38.32;92756.72;5042159;28;20037;-86
2022/04/19 02:43:38;;;;;;;2.00;1.80;;;;;;;16.66;38.18;92752.72;5013605;28;20445;-86
2022/04/19 02:46:04;;;;;;;2.30;1.70;;;;;;;16.66;37.98;92760.19;5029697;28;20139;-85
2022/04/19 02:48:30;;;;;;;2.00;1.80;;;;;;;16.63;38.03;92751.03;5030725;28;20087;-85
2022/04/19 02:50:56;;;;;;;2.20;1.48;;;;;;;16.63;38.33;92756.50;5031077;28;20033;-86
2022/04/19 02:53:21;;;;;;;1.20;1.10;;;;;;;16.64;38.24;92755.25;5030577;28;20049;-85
2022/04/19 02:55:47;;;;;;;1.50;1.33;;;;;;;16.64;38.00;92754.50;5029885;28;20037;-86
2022/04/19 02:58:13;;;;;;;1.55;1.45;;;;;;;16.62;38.10;92749.53;5029501;28;20521;-86
2022/04/19 03:00:38;;;;;;;1.95;1.75;;;;;;;16.64;38.00;92746.31;5030638;28;20029;-86
2022/04/19 03:03:05;;;;;;;1.50;1.40;;;;;;;16.63;37.83;92742.84;5042327;28;20033;-86
2022/04/19 03:05:30;;;;;;;1.98;1.45;;;;;;;16.63;37.86;92742.09;5010392;28;20033;-86
2022/04/19 03:07:56;;;;;;;1.33;1.23;;;;;;;16.63;38.06;92740.13;4977532;28;20825;-86
2022/04/19 03:10:21;;;;;;;2.35;1.60;;;;;;;16.63;37.79;92733.91;4994166;28;20044;-85
2022/04/19 03:12:47;;;;;;;1.60;1.27;;;;;;;16.63;38.02;92742.84;4994295;28;20057;-85
2022/04/19 03:15:12;;;;;;;2.05;1.60;;;;;;;16.63;38.25;92736.63;5009471;28;20506;-86
2022/04/19 03:17:39;;;;;;;1.48;1.38;;;;;;;16.62;37.65;92737.88;4993423;28;20037;-85
2022/04/19 03:20:08;;;;;;;1.58;1.48;;;;;;;16.61;37.94;92739.88;4977688;28;20443;-85
2022/04/19 03:28:04;;;;;;;1.70;1.58;;;;;;;16.61;37.79;92731.69;4899963;29;20766;-85
2022/04/19 03:30:30;;;;;;;1.50;1.40;;;;;;;16.62;38.23;92730.44;4900818;29;20051;-85
2022/04/19 03:32:55;;;;;;;1.88;1.67;;;;;;;16.62;38.10;92724.22;4947750;28;20532;-86
2022/04/19 03:35:21;;;;;;;2.30;1.73;;;;;;;16.63;37.97;92718.28;4930575;29;20058;-86
2022/04/19 03:37:46;;;;;;;1.10;0.95;;;;;;;16.63;38.11;92720.25;4930274;29;20071;-86
2022/04/19 03:40:11;;;;;;;1.83;1.60;;;;;;;16.61;37.80;92718.03;4946678;28;20191;-86
2022/04/19 03:42:40;;;;;;;1.85;1.58;;;;;;;16.60;38.00;92716.56;4931282;29;20075;-86
2022/04/19 03:45:06;;;;;;;2.60;1.30;;;;;;;16.65;38.19;92718.50;4931073;28;20047;-84
2022/04/19 03:47:34;;;;;;;1.60;1.50;;;;;;;16.65;38.24;92713.06;4914631;29;20074;-85
2022/04/19 03:50:00;;;;;;;2.53;1.55;;;;;;;16.72;37.85;92715.19;4931823;29;20035;-84
2022/04/19 03:52:26;;;;;;;1.80;1.35;;;;;;;16.68;38.23;92719.44;4930479;28;20156;-85
2022/04/19 03:54:51;;;;;;;2.10;1.50;;;;;;;16.66;38.27;92709.06;4930681;29;20047;-85
2022/04/19 03:57:17;;;;;;;4.68;1.60;;;;;;;16.63;37.97;92712.06;4929162;28;20067;-86
2022/04/19 03:59:43;;;;;;;3.20;1.65;;;;;;;16.66;37.91;92714.53;4915994;29;20078;-84
2022/04/19 04:02:08;;;;;;;3.40;1.70;;;;;;;16.64;37.92;92716.28;4966751;28;20033;-88
2022/04/19 04:04:35;;;;;;;1.60;1.45;;;;;;;16.63;37.92;92717.53;5013779;28;20438;-88
2022/04/19 04:07:04;;;;;;;2.85;2.45;;;;;;;16.54;34.47;92720.59;5024287;28;20033;-88
2022/04/19 04:09:32;;;;;;;4.45;3.25;;;;;;;16.50;33.76;92723.63;5030242;28;20064;-88
2022/04/19 04:12:00;;;;;;;14.20;3.88;;;;;;;16.43;33.12;92718.75;5030950;28;20402;-88
2022/04/19 04:14:26;;;;;;;6.45;3.00;;;;;;;16.33;32.45;92725.81;5029851;28;20091;-88
2022/04/19 04:16:51;;;;;;;19.42;4.20;;;;;;;16.28;32.09;92721.16;5029915;28;20049;-88
2022/04/19 04:19:17;;;;;;;20.75;4.68;;;;;;;16.20;31.59;92723.72;5028869;28;20037;-88
2022/04/19 04:21:43;;;;;;;14.30;4.50;;;;;;;16.19;31.91;92719.53;5029474;28;20523;-89
2022/04/19 04:24:08;;;;;;;15.00;4.80;;;;;;;16.19;31.59;92719.53;5045128;28;20050;-88
2022/04/19 04:26:33;;;;;;;21.38;4.38;;;;;;;16.25;31.69;92709.28;5046540;28;20041;-89
2022/04/19 04:28:59;;;;;;;21.10;4.35;;;;;;;16.23;32.16;92713.78;5028944;28;20059;-90
2022/04/19 04:31:24;;;;;;;13.90;4.63;;;;;;;16.34;32.19;92719.09;5024277;28;20045;-86
2022/04/19 04:33:50;;;;;;;27.70;6.72;;;;;;;16.37;33.07;92715.34;5038584;28;20034;-93
2022/04/19 04:36:15;;;;;;;29.77;10.43;;;;;;;16.40;33.08;92712.34;5026911;28;20056;-86
2022/04/19 04:38:40;;;;;;;9.55;5.18;;;;;;;16.43;34.50;92707.84;5014896;28;20569;-86
2022/04/19 04:41:08;;;;;;;44.08;18.92;;;;;;;16.41;34.37;92707.63;5011064;28;20036;-83
2022/04/19 04:43:34;;;;;;;37.10;20.98;;;;;;;16.48;35.19;92711.75;5032626;28;20812;-88
2022/04/19 04:51:27;;;;;;;24.10;10.57;;;;;;;16.53;34.39;92702.75;5030714;28;20122;-88
2022/04/19 04:53:53;;;;;;;33.58;5.50;;;;;;;16.53;34.21;92705.47;5024082;28;20037;-87
2022/04/19 04:56:18;;;;;;;20.15;5.38;;;;;;;16.41;33.07;92705.63;5043119;28;20041;-87
2022/04/19 04:58:44;;;;;;;31.10;7.28;;;;;;;16.22;32.17;92709.59;5049651;28;20666;-87
2022/04/19 05:01:09;;;;;;;34.22;7.15;;;;;;;16.11;32.15;92711.19;5012791;28;20041;-88
2022/04/19 05:03:34;;;;;;;27.77;6.35;;;;;;;16.11;32.30;92708.44;5031435;28;20041;-87
2022/04/19 05:06:00;;;;;;;24.20;7.25;;;;;;;16.17;33.17;92699.47;5028133;28;20045;-90
2022/04/19 05:08:25;;;;;;;33.63;7.22;;;;;;;16.27;33.34;92706.78;5030978;28;20044;-86
2022/04/19 05:10:51;;;;;;;35.45;7.78;;;;;;;16.28;33.97;92699.34;5047890;28;20037;-89
2022/04/19 05:13:16;;;;;;;26.23;8.15;;;;;;;16.27;34.33;92697.84;5029624;28;20418;-90
2022/04/19 05:15:43;;;;;;;35.50;9.30;;;;;;;16.24;34.57;92699.63;5048469;28;20037;-91
2022/04/19 05:18:09;;;;;;;71.00;12.70;;;;;;;16.26;34.44;92696.38;5023154;28;20034;-90
2022/04/19 05:20:35;;;;;;;96.32;18.17;;;;;;;16.30;34.26;92700.28;5015582;28;20033;-88
2022/04/19 05:23:01;;;;;;;53.83;16.80;;;;;;;16.30;34.62;92705.75;5018397;28;20045;-89
2022/04/19 05:25:32;;;;;;;31.17;11.93;;;;;;;16.23;33.96;92702.88;5028796;28;20212;-91
2022/04/19 05:27:58;;;;;;;40.58;14.30;;;;;;;16.16;34.29;92701.47;5046874;28;20067;-87
2022/04/19 05:30:23;;;;;;;54.55;13.90;;;;;;;15.97;34.30;92700.69;5031815;28;20045;-86
2022/04/19 05:32:49;;;;;;;52.35;13.35;;;;;;;16.03;33.76;92695.91;5045668;28;20033;-84
2022/04/19 05:35:14;;;;;;;51.53;11.95;;;;;;;15.88;33.77;92704.47;5028616;28;20419;-90
2022/04/19 05:37:41;;;;;;;41.40;8.73;;;;;;;15.77;33.85;92691.72;5034819;28;20096;-92
2022/04/19 05:40:07;;;;;;;19.67;6.13;;;;;;;15.78;33.56;92697.91;5018519;28;20038;-92
2022/04/19 05:42:32;;;;;;;26.90;8.05;;;;;;;15.72;34.03;92700.69;5017527;28;20037;-87
2022/04/19 05:44:58;;;;;;;30.35;9.85;;;;;;;15.64;34.14;92699.75;5043128;28;20506;-89
2022/04/19 05:47:26;;;;;;;21.92;7.68;;;;;;;15.69;33.62;92698.97;5009161;28;20045;-87
2022/04/19 05:49:51;;;;;;;20.13;9.52;;;;;;;15.62;33.85;92696.06;5028015;28;20037;-88
2022/04/19 05:52:17;;;;;;;34.72;11.77;;;;;;;15.52;34.04;92698.38;5030858;28;20103;-90
2022/04/19 05:54:43;;;;;;;27.38;10.50;;;;;;;15.53;34.07;92697.13;5044449;28;20152;-92
2022/04/19 05:57:11;;;;;;;49.90;15.05;;;;;;;15.52;34.13;92697.63;5008837;28;20072;-89
2022/04/19 05:59:37;;;;;;;50.45;21.83;;;;;;;15.56;34.39;92704.31;5044882;28;20052;-90
2022/04/19 06:04:53;;;;;;;64.32;24.88;;;;;;;15.66;34.84;92710.88;5030522;28;20094;-90
2022/04/19 06:07:19;;;;;;;67.00;23.17;;;;;;;15.77;34.71;92726.41;5005918;28;20041;-92
2022/04/19 06:09:45;;;;;;;55.92;22.85;;;;;;;15.80;34.80;92721.94;5013303;28;20048;-91
2022/04/19 06:12:10;;;;;;;295.80;48.95;;;;;;;15.84;34.85;92741.44;5038831;28;20037;-89
2022/04/19 06:14:37;;;;;;;58.40;25.83;;;;;;;15.87;34.57;92732.25;5028879;28;20447;-91
2022/04/19 06:17:02;;;;;;;85.97;26.10;;;;;;;15.92;34.50;92731.47;5021900;28;20118;-88
2022/04/19 06:19:28;;;;;;;80.45;26.13;;;;;;;15.90;34.42;92733.97;5026076;28;20056;-87
2022/04/19 06:21:55;;;;;;;56.20;22.85;;;;;;;15.93;34.78;92728.22;5020781;28;20053;-90
2022/04/19 06:24:20;;;;;;;59.35;23.55;;;;;;;15.95;34.71;92739.34;5033154;28;20454;-89
2022/04/19 06:26:46;;;;;;;67.47;23.55;;;;;;;16.00;34.58;92735.84;5027975;28;20045;-87
2022/04/19 06:29:11;;;;;;;61.22;21.73;;;;;;;16.01;34.63;92737.31;5036361;28;20115;-87
2022/04/19 06:31:36;;;;;;;48.95;21.52;;;;;;;16.02;34.45;92738.78;5022158;28;21390;-89
2022/04/19 06:34:02;;;;;;;58.10;23.95;;;;;;;16.08;34.41;92725.09;5023918;28;20045;-88
2022/04/19 06:36:27;;;;;;;87.55;30.48;;;;;;;16.06;34.66;92733.03;5035051;28;20041;-88
2022/04/19 06:38:53;;;;;;;114.53;42.47;;;;;;;16.06;34.68;92733.78;5014077;28;20037;-88
2022/04/19 06:41:19;;;;;;;105.07;31.50;;;;;;;16.14;34.61;92731.22;5028885;28;20090;-88
2022/04/19 06:43:45;;;;;;;96.53;33.22;;;;;;;16.11;34.53;92732.25;5011844;28;20034;-89
2022/04/19 06:46:13;;;;;;;88.15;32.42;;;;;;;16.14;34.52;92730.50;5029213;28;20056;-87
2022/04/19 06:48:38;;;;;;;89.32;38.78;;;;;;;16.17;34.51;92726.75;5028043;28;20029;-88
2022/04/19 06:51:04;;;;;;;89.60;38.00;;;;;;;16.16;34.79;92723.28;5025509;28;20387;-88
2022/04/19 06:53:30;;;;;;;90.78;39.60;;;;;;;16.16;34.83;92731.47;5012330;28;20852;-89
2022/04/19 06:55:58;;;;;;;87.53;38.30;;;;;;;16.18;34.42;92717.31;5009065;28;20037;-88
2022/04/19 06:58:24;;;;;;;88.90;36.78;;;;;;;16.19;34.60;92718.78;5025771;28;20048;-87
2022/04/19 07:00:50;;;;;;;87.80;35.80;;;;;;;16.24;34.70;92718.72;5030593;28;20037;-90
2022/04/19 07:03:15;;;;;;;74.30;31.83;;;;;;;16.20;34.70;92709.38;5005787;28;20041;-89
2022/04/19 07:05:41;;;;;;;73.05;32.10;;;;;;;16.22;34.73;92706.88;5008156;28;20537;-91
2022/04/19 07:08:07;;;;;;;86.43;34.67;;;;;;;16.26;34.96;92705.31;5001573;28;20037;-89
2022/04/19 07:10:35;;;;;;;77.80;33.90;;;;;;;16.18;34.81;92707.16;5000844;28;20441;-90
2022/04/19 07:13:00;;;;;;;76.60;34.10;;;;;;;16.21;34.69;92714.31;5022947;28;20037;-91
2022/04/19 07:15:26;;;;;;;91.32;33.80;;;;;;;16.21;34.68;92703.41;5027962;28;20033;-89
2022/04/19 07:17:51;;;;;;;79.63;31.92;;;;;;;16.28;34.76;92702.06;4998100;28;20037;-90
2022/04/19 07:28:34;;;;;;;69.15;31.38;;;;;;;16.25;35.04;92700.34;5006605;28;20068;-88
2022/04/19 07:31:01;;;;;;;77.68;31.77;;;;;;;16.28;34.95;92696.59;4993927;28;20074;-87
2022/04/19 07:33:26;;;;;;;72.70;30.05;;;;;;;16.28;35.25;92704.78;5017252;28;20045;-89
2022/04/19 07:35:55;;;;;;;102.60;41.38;;;;;;;16.28;34.97;92700.06;4989370;28;20388;-87
2022/04/19 07:38:23;;;;;;;99.88;43.20;;;;;;;16.30;35.38;92702.28;5006433;28;20459;-86
2022/04/19 07:40:49;;;;;;;91.00;44.90;;;;;;;16.29;35.24;92701.53;5023274;28;20043;-88
2022/04/19 07:43:16;;;;;;;101.65;45.72;;;;;;;16.30;35.03;92697.56;4993189;28;20037;-88
2022/04/19 07:45:42;;;;;;;108.95;53.47;;;;;;;16.30;35.24;92697.56;5024106;28;20086;-90
2022/04/19 07:48:08;;;;;;;125.07;59.28;;;;;;;16.32;35.44;92691.59;4993214;28;20048;-90
2022/04/19 07:50:34;;;;;;;123.30;56.72;;;;;;;16.35;35.32;92693.31;5001512;28;20069;-87
2022/04/19 07:53:00;;;;;;;122.40;59.50;;;;;;;16.37;35.12;92682.63;5003925;28;20040;-88
2022/04/19 07:55:25;;;;;;;131.57;60.95;;;;;;;16.38;35.41;92686.81;5011891;28;20061;-89
2022/04/19 07:57:53;;;;;;;132.45;62.25;;;;;;;16.41;35.43;92683.06;4995732;28;20086;-89
2022/04/19 08:00:18;;;;;;;121.72;62.30;;;;;;;16.43;35.42;92677.84;4992093;28;20029;-87
2022/04/19 08:02:46;;;;;;;159.30;79.53;;;;;;;16.39;35.18;92664.50;5009931;28;20064;-88
2022/04/19 08:05:11;;;;;;;158.63;79.75;;;;;;;16.43;35.46;92678.59;4994092;28;20067;-88
2022/04/19 08:07:36;;;;;;;191.07;90.35;;;;;;;16.41;35.54;92669.44;5023420;28;20041;-89
2022/04/19 08:10:03;;;;;;;217.40;95.20;;;;;;;16.40;35.64;92676.88;5026027;28;20052;-88
2022/04/19 08:12:31;;;;;;;193.25;88.25;;;;;;;16.40;35.71;92671.44;5008362;28;20060;-90
2022/04/19 08:14:57;;;;;;;176.50;83.72;;;;;;;16.43;35.49;92667.66;5032013;28;20072;-90
2022/04/19 08:17:22;;;;;;;182.95;82.63;;;;;;;16.43;35.75;92661.47;5003569;28;20046;-89
2022/04/19 08:19:48;;;;;;;186.90;85.13;;;;;;;16.45;35.75;92661.69;5014019;28;20476;-88
2022/04/19 08:22:14;;;;;;;197.85;86.78;;;;;;;16.45;35.57;92659.69;5004875;28;20041;-88
2022/04/19 08:24:40;;;;;;;189.82;87.53;;;;;;;16.47;35.56;92661.91;5032610;28;20100;-89
2022/04/19 08:27:05;;;;;;;201.35;89.38;;;;;;;16.49;35.91;92659.38;5027955;28;20030;-88
2022/04/19 08:29:31;;;;;;;196.50;91.60;;;;;;;16.51;35.73;92662.34;5038075;28;20376;-88
2022/04/19 08:31:58;;;;;;;215.50;92.72;;;;;;;16.48;35.82;92668.09;5024336;28;20083;-91
2022/04/19 08:34:24;;;;;;;217.85;87.32;;;;;;;16.47;35.90;92667.34;5002075;28;20029;-88
2022/04/19 08:36:49;;;;;;;216.75;85.88;;;;;;;16.46;35.75;92669.34;5004912;28;20044;-88
2022/04/19 08:39:14;;;;;;;212.85;86.43;;;;;;;16.49;35.89;92669.56;5012248;28;20398;-86
2022/04/19 08:41:40;;;;;;;196.20;79.68;;;;;;;16.50;35.67;92671.78;5023939;28;20049;-87
2022/04/19 08:44:05;;;;;;;182.98;76.47;;;;;;;16.54;35.90;92660.56;5044034;28;20034;-87
2022/04/19 08:46:36;;;;;;;193.48;85.25;;;;;;;16.53;35.85;92661.84;5015368;28;20037;-88
2022/04/19 08:49:04;;;;;;;190.63;86.07;;;;;;;16.50;36.14;92657.41;5021181;28;20033;-86
2022/04/19 08:51:30;;;;;;;199.25;89.85;;;;;;;16.48;36.00;92663.38;5004149;28;20076;-88
2022/04/19 08:59:28;;;;;;;212.40;76.55;;;;;;;16.47;36.08;92661.91;5029981;28;20036;-88
2022/04/19 09:01:54;;;;;;;164.13;74.60;;;;;;;16.48;36.17;92660.66;5023240;28;20522;-88
2022/04/19 09:04:25;;;;;;;197.63;80.20;;;;;;;16.49;36.32;92661.38;5032299;28;20368;-87
2022/04/19 09:06:58;;;;;;;190.00;75.78;;;;;;;16.49;36.62;92655.94;5049610;28;20506;-87
2022/04/19 09:09:24;;;;;;;188.88;78.38;;;;;;;16.51;36.54;92656.88;5028074;28;20037;-87
2022/04/19 09:11:50;;;;;;;170.93;79.47;;;;;;;16.50;36.35;92665.59;5031987;28;20061;-89
2022/04/19 09:14:17;;;;;;;155.18;75.88;;;;;;;16.50;36.31;92663.59;5027018;28;20033;-87
2022/04/19 09:16:43;;;;;;;168.35;79.90;;;;;;;16.51;36.41;92658.88;5032900;28;20124;-86
2022/04/19 09:19:08;;;;;;;158.43;79.18;;;;;;;16.50;36.74;92654.69;5027153;28;20350;-86
2022/04/19 09:21:38;;;;;;;142.23;75.53;;;;;;;16.52;36.71;92652.16;5018612;28;20033;-86
2022/04/19 09:24:16;;;;;;;156.18;75.03;;;;;;;16.52;36.40;92661.09;5013295;28;20044;-88
2022/04/19 09:26:50;;;;;;;141.32;70.68;;;;;;;16.54;36.50;92652.41;5010861;28;20099;-87
2022/04/19 09:29:26;;;;;;;145.20;72.47;;;;;;;16.52;36.79;92655.63;5040717;28;20135;-88
2022/04/19 09:31:55;;;;;;;141.40;67.68;;;;;;;16.53;36.76;92662.56;5008115;28;20514;-90
2022/04/19 09:34:37;;;;;;;143.55;68.97;;;;;;;16.53;36.44;92651.66;5035384;28;20434;-87
2022/04/19 09:37:13;;;;;;;129.20;63.45;;;;;;;16.52;36.36;92655.63;5023540;28;20041;-88
2022/04/19 09:39:40;;;;;;;117.10;62.80;;;;;;;16.54;36.68;92647.69;5033603;28;20087;-89
2022/04/19 09:42:07;;;;;;;118.00;59.60;;;;;;;16.55;36.82;92656.59;5032029;28;20120;-88
2022/04/19 09:44:39;;;;;;;128.35;58.90;;;;;;;16.55;36.78;92646.41;5048087;28;20041;-89
2022/04/19 09:47:06;;;;;;;114.65;61.22;;;;;;;16.55;36.65;92653.88;5012385;28;20127;-87
2022/04/19 09:49:45;;;;;;;126.47;63.00;;;;;;;16.56;36.90;92656.09;5006536;28;20125;-87
2022/04/19 09:52:20;;;;;;;126.13;64.88;;;;;;;16.59;37.00;92646.13;5003429;28;20450;-87
2022/04/19 09:54:58;;;;;;;142.07;71.63;;;;;;;16.57;36.97;92656.81;5041079;28;20049;-89
2022/04/19 09:57:24;;;;;;;165.75;81.95;;;;;;;16.58;37.09;92653.56;5007296;28;20033;-89
2022/04/19 09:59:49;;;;;;;150.07;74.97;;;;;;;16.58;37.00;92656.31;5023341;28;20034;-87
2022/04/19 10:10:27;;;;;;;203.02;87.70;;;;;;;16.64;36.80;92664.44;5036945;28;20423;-88
2022/04/19 10:12:53;;;;;;;184.65;87.80;;;;;;;16.64;37.24;92665.19;5010872;28;20041;-89
2022/04/19 10:15:19;;;;;;;182.23;82.00;;;;;;;16.61;37.33;92668.91;5020093;28;20036;-90
2022/04/19 10:17:45;;;;;;;164.20;78.35;;;;;;;16.67;37.24;92663.41;5036972;28;20033;-91
2022/04/19 10:20:11;;;;;;;167.15;79.03;;;;;;;16.66;37.09;92667.41;5015331;28;20064;-90
2022/04/19 10:22:51;;;;;;;139.40;70.85;;;;;;;16.68;37.43;92668.34;5031380;28;20048;-92
2022/04/19 10:25:17;;;;;;;166.82;71.55;;;;;;;16.69;37.27;92653.44;5023109;28;20045;-88
2022/04/19 10:27:43;;;;;;;148.85;70.03;;;;;;;16.74;36.96;92657.34;5045921;28;20056;-91
2022/04/19 10:30:09;;;;;;;132.95;66.38;;;;;;;16.74;37.15;92663.53;5060838;28;20047;-91
2022/04/19 10:32:34;;;;;;;136.15;65.47;;;;;;;16.72;37.41;92657.88;5017106;28;20506;-89
2022/04/19 10:35:00;;;;;;;118.53;63.38;;;;;;;16.75;37.29;92661.56;5035431;28;20040;-90
2022/04/19 10:37:27;;;;;;;121.90;63.83;;;;;;;16.75;37.07;92658.81;5002656;28;20549;-92
2022/04/19 10:39:59;;;;;;;117.47;61.13;;;;;;;16.77;37.13;92665.25;5018371;28;20038;-86
2022/04/19 10:42:37;;;;;;;116.22;61.70;;;;;;;16.77;37.25;92664.50;5037447;28;20428;-89
2022/04/19 10:45:14;;;;;;;119.70;60.22;;;;;;;16.79;37.51;92657.28;5011489;28;20056;-89
2022/04/19 10:47:51;;;;;;;114.30;57.75;;;;;;;16.81;37.64;92666.94;5040153;28;20041;-88
2022/04/19 10:50:28;;;;;;;108.45;54.17;;;;;;;16.74;37.42;92665.53;5029635;28;20033;-89
2022/04/19 10:52:57;;;;;;;98.32;53.65;;;;;;;16.77;37.44;92659.03;5021862;28;20098;-89
2022/04/19 10:55:25;;;;;;;118.30;55.47;;;;;;;16.71;37.29;92656.38;5031825;28;20053;-92
2022/04/19 10:58:23;;;;;;;100.07;52.50;;;;;;;16.72;37.25;92662.59;5004770;28;20131;-90
2022/04/19 11:00:50;;;;;;;113.10;51.72;;;;;;;16.73;37.42;92647.69;5022294;28;20084;-89
2022/04/19 11:03:18;;;;;;;109.72;56.08;;;;;;;16.73;37.71;92648.41;5044718;28;20067;-89
2022/04/19 11:05:57;;;;;;;115.45;57.40;;;;;;;16.71;37.39;92653.66;5014242;28;20099;-86
2022/04/19 11:08:26;;;;;;;128.82;61.70;;;;;;;16.71;37.20;92650.94;5010618;28;20191;-87
2022/04/19 11:10:51;;;;;;;129.18;63.03;;;;;;;16.74;37.51;92655.34;5042030;28;20036;-86
2022/04/19 11:13:17;;;;;;;141.82;67.70;;;;;;;16.73;37.25;92651.16;5042862;28;20037;-89
2022/04/19 11:15:42;;;;;;;129.05;67.28;;;;;;;16.71;37.59;92645.47;5012571;28;20061;-89
2022/04/19 11:18:24;;;;;;;159.43;76.82;;;;;;;16.72;37.58;92638.03;5033768;28;20068;-87
2022/04/19 11:20:50;;;;;;;138.40;71.75;;;;;;;16.72;37.42;92632.56;5050036;28;20541;-87
2022/04/19 11:23:20;;;;;;;166.00;78.00;;;;;;;16.72;37.30;92638.03;5024571;28;20057;-89
2022/04/19 11:25:46;;;;;;;127.03;57.10;;;;;;;16.64;37.50;92632.44;5038389;28;20093;-89
2022/04/19 11:28:11;;;;;;;111.03;48.08;;;;;;;16.58;38.18;92637.22;5012270;28;20041;-88
2022/04/19 11:30:44;;;;;;;117.97;50.33;;;;;;;16.59;38.39;92632.50;5046245;28;20099;-86
2022/04/19 11:33:09;;;;;;;127.63;58.15;;;;;;;16.63;37.93;92630.97;5013200;28;20442;-86
2022/04/19 11:35:35;;;;;;;103.57;49.30;;;;;;;16.63;38.30;92633.69;5027463;28;20037;-90
2022/04/19 11:38:05;;;;;;;122.28;55.20;;;;;;;16.64;37.93;92632.44;5016364;28;20065;-91
2022/04/19 11:48:45;;;;;;;124.88;64.18;;;;;;;16.67;37.95;92608.84;5032141;28;20082;-88
2022/04/19 11:51:12;;;;;;;131.95;66.47;;;;;;;16.67;37.87;92601.38;5019345;28;20037;-89
2022/04/19 11:53:37;;;;;;;131.75;64.75;;;;;;;16.71;38.22;92609.25;5038678;28;20095;-89
2022/04/19 11:56:03;;;;;;;113.35;60.20;;;;;;;16.69;37.93;92606.31;5016956;28;20048;-88
2022/04/19 11:58:30;;;;;;;126.95;61.08;;;;;;;16.71;37.52;92606.53;5052113;28;20048;-87
2022/04/19 12:01:04;;;;;;;128.60;63.10;;;;;;;16.69;38.12;92598.13;5031711;28;20037;-86
2022/04/19 12:03:32;;;;;;;151.55;66.57;;;;;;;16.70;38.00;92600.34;5030759;28;20041;-87
2022/04/19 12:06:11;;;;;;;133.20;66.55;;;;;;;16.71;37.87;92592.88;5032491;28;20052;-86